sensor_id;sensor_type;location;lat;lon;timestamp;P1;durP1;ratioP1;P2;durP2;ratioP2
6342;SDS011;3204;42.698;23.298;2023-07-31T00:00:11;4.07;;;3.67;;
6342;SDS011;3204;42.698;23.298;2023-07-31T00:02:37;3.70;;;3.50;;
6342;SDS011;3204;42.698;23.298;2023-07-31T00:05:03;3.75;;;3.55;;
6342;SDS011;3204;42.698;23.298;2023-07-31T00:07:28;3.45;;;3.35;;
6342;SDS011;3204;42.698;23.298;2023-07-31T00:09:54;3.20;;;3.10;;
6342;SDS011;3204;42.698;23.298;2023-07-31T00:12:21;3.67;;;3.58;;
6342;SDS011;3204;42.698;23.298;2023-07-31T00:14:47;3.58;;;3.28;;
6342;SDS011;3204;42.698;23.298;2023-07-31T00:17:12;3.67;;;3.38;;
6342;SDS011;3204;42.698;23.298;2023-07-31T00:19:38;3.70;;;3.60;;
6342;SDS011;3204;42.698;23.298;2023-07-31T00:22:03;3.58;;;3.38;;
6342;SDS011;3204;42.698;23.298;2023-07-31T00:24:29;3.88;;;3.67;;
6342;SDS011;3204;42.698;23.298;2023-07-31T00:26:54;3.70;;;3.38;;
6342;SDS011;3204;42.698;23.298;2023-07-31T00:29:20;3.90;;;3.80;;
6342;SDS011;3204;42.698;23.298;2023-07-31T00:31:45;4.55;;;4.35;;
6342;SDS011;3204;42.698;23.298;2023-07-31T00:34:11;4.10;;;3.90;;
6342;SDS011;3204;42.698;23.298;2023-07-31T00:36:36;4.30;;;4.10;;
6342;SDS011;3204;42.698;23.298;2023-07-31T00:39:02;4.63;;;4.40;;
6342;SDS011;3204;42.698;23.298;2023-07-31T00:41:27;4.90;;;4.60;;
6342;SDS011;3204;42.698;23.298;2023-07-31T00:43:53;4.60;;;4.32;;
6342;SDS011;3204;42.698;23.298;2023-07-31T00:46:18;4.75;;;4.55;;
6342;SDS011;3204;42.698;23.298;2023-07-31T00:48:45;5.30;;;5.07;;
6342;SDS011;3204;42.698;23.298;2023-07-31T00:51:11;4.70;;;4.50;;
6342;SDS011;3204;42.698;23.298;2023-07-31T00:53:36;5.53;;;5.32;;
6342;SDS011;3204;42.698;23.298;2023-07-31T00:56:03;6.82;;;6.32;;
6342;SDS011;3204;42.698;23.298;2023-07-31T00:58:29;6.88;;;6.57;;
6342;SDS011;3204;42.698;23.298;2023-07-31T01:00:54;6.90;;;6.40;;
6342;SDS011;3204;42.698;23.298;2023-07-31T01:03:20;8.40;;;8.00;;
6342;SDS011;3204;42.698;23.298;2023-07-31T01:08:55;8.35;;;7.80;;
6342;SDS011;3204;42.698;23.298;2023-07-31T01:11:34;8.27;;;7.88;;
6342;SDS011;3204;42.698;23.298;2023-07-31T01:14:03;8.55;;;7.97;;
6342;SDS011;3204;42.698;23.298;2023-07-31T01:16:29;8.07;;;7.68;;
6342;SDS011;3204;42.698;23.298;2023-07-31T01:18:54;9.48;;;8.70;;
6342;SDS011;3204;42.698;23.298;2023-07-31T01:24:20;11.15;;;10.35;;
6342;SDS011;3204;42.698;23.298;2023-07-31T01:27:05;11.77;;;11.10;;
6342;SDS011;3204;42.698;23.298;2023-07-31T01:32:06;12.63;;;11.68;;
6342;SDS011;3204;42.698;23.298;2023-07-31T01:34:32;11.75;;;11.05;;
6342;SDS011;3204;42.698;23.298;2023-07-31T01:37:00;13.80;;;12.50;;
6342;SDS011;3204;42.698;23.298;2023-07-31T01:39:25;13.98;;;12.98;;
6342;SDS011;3204;42.698;23.298;2023-07-31T01:41:51;14.40;;;13.32;;
6342;SDS011;3204;42.698;23.298;2023-07-31T01:44:16;14.98;;;13.90;;
6342;SDS011;3204;42.698;23.298;2023-07-31T01:46:42;15.43;;;14.13;;
6342;SDS011;3204;42.698;23.298;2023-07-31T01:49:07;16.48;;;15.13;;
6342;SDS011;3204;42.698;23.298;2023-07-31T01:51:33;16.88;;;15.48;;
6342;SDS011;3204;42.698;23.298;2023-07-31T01:53:59;16.50;;;14.90;;
6342;SDS011;3204;42.698;23.298;2023-07-31T01:56:25;17.50;;;16.10;;
6342;SDS011;3204;42.698;23.298;2023-07-31T01:58:51;15.85;;;14.70;;
6342;SDS011;3204;42.698;23.298;2023-07-31T02:01:17;17.00;;;15.70;;
6342;SDS011;3204;42.698;23.298;2023-07-31T02:03:42;18.50;;;16.90;;
6342;SDS011;3204;42.698;23.298;2023-07-31T02:06:07;17.55;;;16.15;;
6342;SDS011;3204;42.698;23.298;2023-07-31T02:08:33;17.73;;;16.13;;
6342;SDS011;3204;42.698;23.298;2023-07-31T02:10:58;16.27;;;15.15;;
6342;SDS011;3204;42.698;23.298;2023-07-31T02:13:25;17.77;;;16.27;;
6342;SDS011;3204;42.698;23.298;2023-07-31T02:15:50;18.73;;;16.90;;
6342;SDS011;3204;42.698;23.298;2023-07-31T02:18:16;18.58;;;16.95;;
6342;SDS011;3204;42.698;23.298;2023-07-31T02:20:41;18.58;;;16.98;;
6342;SDS011;3204;42.698;23.298;2023-07-31T02:23:07;18.58;;;16.98;;
6342;SDS011;3204;42.698;23.298;2023-07-31T02:25:32;17.08;;;15.80;;
6342;SDS011;3204;42.698;23.298;2023-07-31T02:27:57;17.40;;;16.00;;
6342;SDS011;3204;42.698;23.298;2023-07-31T02:30:23;19.60;;;17.90;;
6342;SDS011;3204;42.698;23.298;2023-07-31T02:32:48;20.08;;;18.27;;
6342;SDS011;3204;42.698;23.298;2023-07-31T02:35:14;19.33;;;17.52;;
6342;SDS011;3204;42.698;23.298;2023-07-31T02:37:41;19.75;;;17.95;;
6342;SDS011;3204;42.698;23.298;2023-07-31T02:40:07;17.65;;;16.15;;
6342;SDS011;3204;42.698;23.298;2023-07-31T02:42:33;20.02;;;18.27;;
6342;SDS011;3204;42.698;23.298;2023-07-31T02:44:58;17.95;;;16.48;;
6342;SDS011;3204;42.698;23.298;2023-07-31T02:47:24;20.13;;;18.25;;
6342;SDS011;3204;42.698;23.298;2023-07-31T02:49:49;19.70;;;17.80;;
6342;SDS011;3204;42.698;23.298;2023-07-31T02:52:15;19.08;;;17.65;;
6342;SDS011;3204;42.698;23.298;2023-07-31T02:54:40;20.90;;;18.70;;
6342;SDS011;3204;42.698;23.298;2023-07-31T02:57:05;19.88;;;18.20;;
6342;SDS011;3204;42.698;23.298;2023-07-31T02:59:31;19.35;;;17.65;;
6342;SDS011;3204;42.698;23.298;2023-07-31T03:01:56;19.27;;;17.60;;
6342;SDS011;3204;42.698;23.298;2023-07-31T03:04:22;18.85;;;17.25;;
6342;SDS011;3204;42.698;23.298;2023-07-31T03:06:47;21.20;;;19.25;;
6342;SDS011;3204;42.698;23.298;2023-07-31T03:09:13;20.33;;;18.42;;
6342;SDS011;3204;42.698;23.298;2023-07-31T03:11:38;18.60;;;17.10;;
6342;SDS011;3204;42.698;23.298;2023-07-31T03:14:04;19.85;;;18.10;;
6342;SDS011;3204;42.698;23.298;2023-07-31T03:16:29;19.52;;;17.83;;
6342;SDS011;3204;42.698;23.298;2023-07-31T03:18:54;19.40;;;17.75;;
6342;SDS011;3204;42.698;23.298;2023-07-31T03:21:20;19.73;;;17.83;;
6342;SDS011;3204;42.698;23.298;2023-07-31T03:23:45;19.25;;;17.33;;
6342;SDS011;3204;42.698;23.298;2023-07-31T03:26:11;19.33;;;17.73;;
6342;SDS011;3204;42.698;23.298;2023-07-31T03:28:36;20.25;;;18.65;;
6342;SDS011;3204;42.698;23.298;2023-07-31T03:31:02;20.05;;;18.25;;
6342;SDS011;3204;42.698;23.298;2023-07-31T03:33:27;20.95;;;19.08;;
6342;SDS011;3204;42.698;23.298;2023-07-31T03:35:53;20.42;;;18.52;;
6342;SDS011;3204;42.698;23.298;2023-07-31T03:38:18;20.38;;;18.58;;
6342;SDS011;3204;42.698;23.298;2023-07-31T03:40:44;22.23;;;19.85;;
6342;SDS011;3204;42.698;23.298;2023-07-31T03:43:10;19.42;;;17.70;;
6342;SDS011;3204;42.698;23.298;2023-07-31T03:45:36;21.48;;;19.27;;
6342;SDS011;3204;42.698;23.298;2023-07-31T03:48:01;21.83;;;19.67;;
6342;SDS011;3204;42.698;23.298;2023-07-31T03:50:27;21.92;;;19.92;;
6342;SDS011;3204;42.698;23.298;2023-07-31T03:52:52;23.00;;;20.77;;
6342;SDS011;3204;42.698;23.298;2023-07-31T03:55:17;21.20;;;19.40;;
6342;SDS011;3204;42.698;23.298;2023-07-31T03:57:43;22.40;;;20.17;;
6342;SDS011;3204;42.698;23.298;2023-07-31T04:00:09;22.20;;;20.17;;
6342;SDS011;3204;42.698;23.298;2023-07-31T04:02:36;22.90;;;20.70;;
6342;SDS011;3204;42.698;23.298;2023-07-31T04:05:01;23.13;;;20.75;;
6342;SDS011;3204;42.698;23.298;2023-07-31T04:07:27;22.02;;;19.77;;
6342;SDS011;3204;42.698;23.298;2023-07-31T04:09:52;22.67;;;20.40;;
6342;SDS011;3204;42.698;23.298;2023-07-31T04:12:18;21.50;;;19.27;;
6342;SDS011;3204;42.698;23.298;2023-07-31T04:14:43;22.75;;;20.58;;
6342;SDS011;3204;42.698;23.298;2023-07-31T04:17:09;23.50;;;21.30;;
6342;SDS011;3204;42.698;23.298;2023-07-31T04:19:34;24.15;;;21.80;;
6342;SDS011;3204;42.698;23.298;2023-07-31T04:22:00;23.80;;;21.48;;
6342;SDS011;3204;42.698;23.298;2023-07-31T04:24:25;22.40;;;20.30;;
6342;SDS011;3204;42.698;23.298;2023-07-31T04:26:51;23.30;;;20.92;;
6342;SDS011;3204;42.698;23.298;2023-07-31T04:29:17;23.13;;;20.83;;
6342;SDS011;3204;42.698;23.298;2023-07-31T04:31:42;22.40;;;20.35;;
6342;SDS011;3204;42.698;23.298;2023-07-31T04:34:08;23.15;;;20.75;;
6342;SDS011;3204;42.698;23.298;2023-07-31T04:36:33;23.95;;;21.20;;
6342;SDS011;3204;42.698;23.298;2023-07-31T04:38:59;21.95;;;19.65;;
6342;SDS011;3204;42.698;23.298;2023-07-31T04:41:25;23.45;;;21.00;;
6342;SDS011;3204;42.698;23.298;2023-07-31T04:43:51;21.55;;;19.50;;
6342;SDS011;3204;42.698;23.298;2023-07-31T04:46:16;23.17;;;20.98;;
6342;SDS011;3204;42.698;23.298;2023-07-31T04:48:42;23.25;;;20.92;;
6342;SDS011;3204;42.698;23.298;2023-07-31T04:51:07;21.63;;;19.67;;
6342;SDS011;3204;42.698;23.298;2023-07-31T04:53:34;21.60;;;19.70;;
6342;SDS011;3204;42.698;23.298;2023-07-31T04:56:00;22.50;;;20.05;;
6342;SDS011;3204;42.698;23.298;2023-07-31T04:58:25;22.63;;;19.77;;
6342;SDS011;3204;42.698;23.298;2023-07-31T05:00:51;21.85;;;19.75;;
6342;SDS011;3204;42.698;23.298;2023-07-31T05:03:16;22.88;;;20.55;;
6342;SDS011;3204;42.698;23.298;2023-07-31T05:05:42;21.35;;;19.35;;
6342;SDS011;3204;42.698;23.298;2023-07-31T05:08:07;21.75;;;19.67;;
6342;SDS011;3204;42.698;23.298;2023-07-31T05:10:33;20.70;;;18.60;;
6342;SDS011;3204;42.698;23.298;2023-07-31T05:12:58;20.38;;;18.42;;
6342;SDS011;3204;42.698;23.298;2023-07-31T05:15:23;18.70;;;17.10;;
6342;SDS011;3204;42.698;23.298;2023-07-31T05:17:49;18.50;;;17.08;;
6342;SDS011;3204;42.698;23.298;2023-07-31T05:20:14;17.83;;;16.30;;
6342;SDS011;3204;42.698;23.298;2023-07-31T05:22:40;17.90;;;16.10;;
6342;SDS011;3204;42.698;23.298;2023-07-31T05:25:06;18.05;;;16.45;;
6342;SDS011;3204;42.698;23.298;2023-07-31T05:27:32;18.02;;;16.30;;
6342;SDS011;3204;42.698;23.298;2023-07-31T05:29:57;17.15;;;15.75;;
6342;SDS011;3204;42.698;23.298;2023-07-31T05:32:23;17.23;;;15.63;;
6342;SDS011;3204;42.698;23.298;2023-07-31T05:34:50;16.80;;;15.40;;
6342;SDS011;3204;42.698;23.298;2023-07-31T05:37:17;15.75;;;14.65;;
6342;SDS011;3204;42.698;23.298;2023-07-31T05:39:42;16.33;;;14.55;;
6342;SDS011;3204;42.698;23.298;2023-07-31T05:42:08;13.18;;;12.38;;
6342;SDS011;3204;42.698;23.298;2023-07-31T05:44:33;13.77;;;12.70;;
6342;SDS011;3204;42.698;23.298;2023-07-31T05:46:59;14.18;;;12.52;;
6342;SDS011;3204;42.698;23.298;2023-07-31T05:49:25;11.63;;;11.00;;
6342;SDS011;3204;42.698;23.298;2023-07-31T05:51:50;11.02;;;10.40;;
6342;SDS011;3204;42.698;23.298;2023-07-31T05:54:16;11.20;;;10.57;;
6342;SDS011;3204;42.698;23.298;2023-07-31T05:56:41;11.02;;;10.43;;
6342;SDS011;3204;42.698;23.298;2023-07-31T05:59:08;9.95;;;9.45;;
6342;SDS011;3204;42.698;23.298;2023-07-31T06:01:34;10.35;;;9.75;;
6342;SDS011;3204;42.698;23.298;2023-07-31T06:03:59;9.85;;;9.23;;
6342;SDS011;3204;42.698;23.298;2023-07-31T06:06:24;10.05;;;9.45;;
6342;SDS011;3204;42.698;23.298;2023-07-31T06:08:50;9.80;;;9.30;;
6342;SDS011;3204;42.698;23.298;2023-07-31T06:11:16;9.20;;;8.60;;
6342;SDS011;3204;42.698;23.298;2023-07-31T06:13:41;8.32;;;7.82;;
6342;SDS011;3204;42.698;23.298;2023-07-31T06:16:09;7.97;;;7.47;;
6342;SDS011;3204;42.698;23.298;2023-07-31T06:18:35;7.88;;;7.47;;
6342;SDS011;3204;42.698;23.298;2023-07-31T06:21:00;7.35;;;6.85;;
6342;SDS011;3204;42.698;23.298;2023-07-31T06:23:26;7.30;;;6.80;;
6342;SDS011;3204;42.698;23.298;2023-07-31T06:25:51;6.25;;;6.00;;
6342;SDS011;3204;42.698;23.298;2023-07-31T06:28:16;6.93;;;6.40;;
6342;SDS011;3204;42.698;23.298;2023-07-31T06:30:42;6.20;;;5.78;;
6342;SDS011;3204;42.698;23.298;2023-07-31T06:33:08;6.05;;;5.68;;
6342;SDS011;3204;42.698;23.298;2023-07-31T06:35:34;6.30;;;6.00;;
6342;SDS011;3204;42.698;23.298;2023-07-31T06:37:59;6.80;;;6.18;;
6342;SDS011;3204;42.698;23.298;2023-07-31T06:40:25;6.28;;;5.97;;
6342;SDS011;3204;42.698;23.298;2023-07-31T06:42:50;6.70;;;6.07;;
6342;SDS011;3204;42.698;23.298;2023-07-31T06:45:15;6.38;;;5.97;;
6342;SDS011;3204;42.698;23.298;2023-07-31T06:47:41;5.47;;;5.18;;
6342;SDS011;3204;42.698;23.298;2023-07-31T06:50:07;6.25;;;5.00;;
6342;SDS011;3204;42.698;23.298;2023-07-31T06:52:33;5.72;;;5.22;;
6342;SDS011;3204;42.698;23.298;2023-07-31T06:55:02;5.60;;;5.15;;
6342;SDS011;3204;42.698;23.298;2023-07-31T06:57:28;4.45;;;4.25;;
6342;SDS011;3204;42.698;23.298;2023-07-31T06:59:54;4.93;;;4.63;;
6342;SDS011;3204;42.698;23.298;2023-07-31T07:02:19;4.60;;;4.40;;
6342;SDS011;3204;42.698;23.298;2023-07-31T07:04:45;5.03;;;4.68;;
6342;SDS011;3204;42.698;23.298;2023-07-31T07:07:11;4.57;;;4.18;;
6342;SDS011;3204;42.698;23.298;2023-07-31T07:09:36;4.88;;;4.65;;
6342;SDS011;3204;42.698;23.298;2023-07-31T07:12:02;4.85;;;4.47;;
6342;SDS011;3204;42.698;23.298;2023-07-31T07:14:28;4.72;;;4.43;;
6342;SDS011;3204;42.698;23.298;2023-07-31T07:16:53;4.20;;;4.00;;
6342;SDS011;3204;42.698;23.298;2023-07-31T07:19:19;4.00;;;3.70;;
6342;SDS011;3204;42.698;23.298;2023-07-31T07:21:44;4.88;;;4.53;;
6342;SDS011;3204;42.698;23.298;2023-07-31T07:24:10;4.15;;;3.80;;
6342;SDS011;3204;42.698;23.298;2023-07-31T07:26:35;4.35;;;3.92;;
6342;SDS011;3204;42.698;23.298;2023-07-31T07:29:01;7.72;;;3.78;;
6342;SDS011;3204;42.698;23.298;2023-07-31T07:31:27;4.25;;;3.90;;
6342;SDS011;3204;42.698;23.298;2023-07-31T07:33:53;4.30;;;4.00;;
6342;SDS011;3204;42.698;23.298;2023-07-31T07:36:19;3.88;;;3.67;;
6342;SDS011;3204;42.698;23.298;2023-07-31T07:38:44;3.80;;;3.50;;
6342;SDS011;3204;42.698;23.298;2023-07-31T07:41:10;4.55;;;4.03;;
6342;SDS011;3204;42.698;23.298;2023-07-31T07:43:35;3.92;;;3.63;;
6342;SDS011;3204;42.698;23.298;2023-07-31T07:46:00;4.10;;;3.90;;
6342;SDS011;3204;42.698;23.298;2023-07-31T07:48:26;4.50;;;3.92;;
6342;SDS011;3204;42.698;23.298;2023-07-31T07:50:51;3.95;;;3.65;;
6342;SDS011;3204;42.698;23.298;2023-07-31T07:53:17;3.40;;;3.17;;
6342;SDS011;3204;42.698;23.298;2023-07-31T07:55:42;3.65;;;3.22;;
6342;SDS011;3204;42.698;23.298;2023-07-31T07:58:07;3.20;;;3.10;;
6342;SDS011;3204;42.698;23.298;2023-07-31T08:00:33;3.30;;;3.10;;
6342;SDS011;3204;42.698;23.298;2023-07-31T08:02:58;4.25;;;3.97;;
6342;SDS011;3204;42.698;23.298;2023-07-31T08:05:24;3.55;;;3.35;;
6342;SDS011;3204;42.698;23.298;2023-07-31T08:07:49;3.67;;;3.47;;
6342;SDS011;3204;42.698;23.298;2023-07-31T08:10:15;3.65;;;3.53;;
6342;SDS011;3204;42.698;23.298;2023-07-31T08:12:40;3.95;;;3.75;;
6342;SDS011;3204;42.698;23.298;2023-07-31T08:15:06;3.78;;;3.58;;
6342;SDS011;3204;42.698;23.298;2023-07-31T08:17:32;5.55;;;3.60;;
6342;SDS011;3204;42.698;23.298;2023-07-31T08:19:57;3.85;;;3.65;;
6342;SDS011;3204;42.698;23.298;2023-07-31T08:22:23;4.38;;;3.60;;
6342;SDS011;3204;42.698;23.298;2023-07-31T08:24:49;3.53;;;3.22;;
6342;SDS011;3204;42.698;23.298;2023-07-31T08:27:14;7.65;;;3.80;;
6342;SDS011;3204;42.698;23.298;2023-07-31T08:29:39;3.92;;;3.72;;
6342;SDS011;3204;42.698;23.298;2023-07-31T08:32:05;4.28;;;3.53;;
6342;SDS011;3204;42.698;23.298;2023-07-31T08:34:31;3.38;;;3.25;;
6342;SDS011;3204;42.698;23.298;2023-07-31T08:36:56;4.50;;;3.28;;
6342;SDS011;3204;42.698;23.298;2023-07-31T08:39:21;4.68;;;3.40;;
6342;SDS011;3204;42.698;23.298;2023-07-31T08:41:47;3.55;;;3.35;;
6342;SDS011;3204;42.698;23.298;2023-07-31T08:44:13;3.25;;;3.05;;
6342;SDS011;3204;42.698;23.298;2023-07-31T08:46:40;5.55;;;3.63;;
6342;SDS011;3204;42.698;23.298;2023-07-31T08:49:06;3.30;;;3.05;;
6342;SDS011;3204;42.698;23.298;2023-07-31T08:51:35;3.47;;;3.17;;
6342;SDS011;3204;42.698;23.298;2023-07-31T08:54:02;3.47;;;3.28;;
6342;SDS011;3204;42.698;23.298;2023-07-31T08:56:29;4.75;;;3.28;;
6342;SDS011;3204;42.698;23.298;2023-07-31T08:58:55;2.85;;;2.75;;
6342;SDS011;3204;42.698;23.298;2023-07-31T09:01:21;3.45;;;3.35;;
6342;SDS011;3204;42.698;23.298;2023-07-31T09:03:48;3.83;;;3.60;;
6342;SDS011;3204;42.698;23.298;2023-07-31T09:06:16;3.75;;;3.53;;
6342;SDS011;3204;42.698;23.298;2023-07-31T09:08:45;4.63;;;4.20;;
6342;SDS011;3204;42.698;23.298;2023-07-31T09:11:11;3.72;;;3.40;;
6342;SDS011;3204;42.698;23.298;2023-07-31T09:13:37;2.70;;;2.60;;
6342;SDS011;3204;42.698;23.298;2023-07-31T09:16:05;3.47;;;3.28;;
6342;SDS011;3204;42.698;23.298;2023-07-31T09:18:30;3.45;;;2.85;;
6342;SDS011;3204;42.698;23.298;2023-07-31T09:21:02;3.45;;;3.08;;
6342;SDS011;3204;42.698;23.298;2023-07-31T09:23:44;3.45;;;3.25;;
6342;SDS011;3204;42.698;23.298;2023-07-31T09:26:28;3.25;;;3.05;;
6342;SDS011;3204;42.698;23.298;2023-07-31T09:28:58;3.25;;;3.00;;
6342;SDS011;3204;42.698;23.298;2023-07-31T09:31:58;3.45;;;3.30;;
6342;SDS011;3204;42.698;23.298;2023-07-31T09:34:17;4.25;;;2.88;;
6342;SDS011;3204;42.698;23.298;2023-07-31T09:36:46;3.40;;;3.05;;
6342;SDS011;3204;42.698;23.298;2023-07-31T09:39:13;4.20;;;2.83;;
6342;SDS011;3204;42.698;23.298;2023-07-31T09:41:46;3.88;;;2.70;;
6342;SDS011;3204;42.698;23.298;2023-07-31T09:44:18;3.47;;;3.17;;
6342;SDS011;3204;42.698;23.298;2023-07-31T09:46:43;4.13;;;2.75;;
6342;SDS011;3204;42.698;23.298;2023-07-31T09:49:10;3.95;;;2.60;;
6342;SDS011;3204;42.698;23.298;2023-07-31T09:51:37;2.72;;;2.63;;
6342;SDS011;3204;42.698;23.298;2023-07-31T09:54:08;2.40;;;2.20;;
6342;SDS011;3204;42.698;23.298;2023-07-31T09:56:36;2.45;;;2.35;;
6342;SDS011;3204;42.698;23.298;2023-07-31T09:59:03;3.20;;;2.28;;
6342;SDS011;3204;42.698;23.298;2023-07-31T10:01:29;2.90;;;2.38;;
6342;SDS011;3204;42.698;23.298;2023-07-31T10:03:54;2.40;;;2.17;;
6342;SDS011;3204;42.698;23.298;2023-07-31T10:06:21;2.30;;;2.20;;
6342;SDS011;3204;42.698;23.298;2023-07-31T10:08:48;2.20;;;2.10;;
6342;SDS011;3204;42.698;23.298;2023-07-31T10:11:18;2.03;;;1.92;;
6342;SDS011;3204;42.698;23.298;2023-07-31T10:13:44;2.60;;;2.40;;
6342;SDS011;3204;42.698;23.298;2023-07-31T10:16:10;2.50;;;2.30;;
6342;SDS011;3204;42.698;23.298;2023-07-31T10:18:37;3.40;;;2.10;;
6342;SDS011;3204;42.698;23.298;2023-07-31T10:21:04;2.00;;;1.90;;
6342;SDS011;3204;42.698;23.298;2023-07-31T10:23:31;3.05;;;2.17;;
6342;SDS011;3204;42.698;23.298;2023-07-31T10:25:57;1.90;;;1.70;;
6342;SDS011;3204;42.698;23.298;2023-07-31T10:28:24;2.30;;;1.95;;
6342;SDS011;3204;42.698;23.298;2023-07-31T10:30:50;1.75;;;1.73;;
6342;SDS011;3204;42.698;23.298;2023-07-31T10:33:17;2.00;;;1.90;;
6342;SDS011;3204;42.698;23.298;2023-07-31T10:35:43;2.13;;;2.03;;
6342;SDS011;3204;42.698;23.298;2023-07-31T10:38:11;3.08;;;1.83;;
6342;SDS011;3204;42.698;23.298;2023-07-31T10:40:38;2.20;;;1.90;;
6342;SDS011;3204;42.698;23.298;2023-07-31T10:43:04;2.78;;;2.13;;
6342;SDS011;3204;42.698;23.298;2023-07-31T10:48:05;4.55;;;2.00;;
6342;SDS011;3204;42.698;23.298;2023-07-31T10:50:33;3.30;;;3.17;;
6342;SDS011;3204;42.698;23.298;2023-07-31T10:53:04;3.00;;;1.90;;
6342;SDS011;3204;42.698;23.298;2023-07-31T10:55:32;2.03;;;1.90;;
6342;SDS011;3204;42.698;23.298;2023-07-31T11:00:32;2.13;;;1.95;;
6342;SDS011;3204;42.698;23.298;2023-07-31T11:05:43;2.83;;;1.80;;
6342;SDS011;3204;42.698;23.298;2023-07-31T11:08:14;2.90;;;1.75;;
6342;SDS011;3204;42.698;23.298;2023-07-31T11:10:50;1.80;;;1.70;;
6342;SDS011;3204;42.698;23.298;2023-07-31T11:16:11;1.73;;;1.63;;
6342;SDS011;3204;42.698;23.298;2023-07-31T11:18:39;2.50;;;1.80;;
6342;SDS011;3204;42.698;23.298;2023-07-31T11:21:06;1.70;;;1.52;;
6342;SDS011;3204;42.698;23.298;2023-07-31T11:23:31;2.80;;;1.98;;
6342;SDS011;3204;42.698;23.298;2023-07-31T11:26:00;3.35;;;1.80;;
6342;SDS011;3204;42.698;23.298;2023-07-31T11:28:30;1.77;;;1.67;;
6342;SDS011;3204;42.698;23.298;2023-07-31T11:30:58;2.17;;;1.60;;
6342;SDS011;3204;42.698;23.298;2023-07-31T11:33:24;2.17;;;1.88;;
6342;SDS011;3204;42.698;23.298;2023-07-31T11:35:49;2.03;;;1.77;;
6342;SDS011;3204;42.698;23.298;2023-07-31T11:38:21;2.30;;;2.20;;
6342;SDS011;3204;42.698;23.298;2023-07-31T11:40:52;2.83;;;2.63;;
6342;SDS011;3204;42.698;23.298;2023-07-31T11:43:19;2.72;;;2.53;;
6342;SDS011;3204;42.698;23.298;2023-07-31T11:45:49;2.50;;;2.40;;
6342;SDS011;3204;42.698;23.298;2023-07-31T11:48:19;2.50;;;2.40;;
6342;SDS011;3204;42.698;23.298;2023-07-31T11:50:50;2.67;;;2.47;;
6342;SDS011;3204;42.698;23.298;2023-07-31T11:53:18;2.53;;;2.42;;
6342;SDS011;3204;42.698;23.298;2023-07-31T11:55:49;4.03;;;2.72;;
6342;SDS011;3204;42.698;23.298;2023-07-31T11:58:15;3.10;;;2.90;;
6342;SDS011;3204;42.698;23.298;2023-07-31T12:00:41;2.95;;;2.75;;
6342;SDS011;3204;42.698;23.298;2023-07-31T12:03:07;3.47;;;3.17;;
6342;SDS011;3204;42.698;23.298;2023-07-31T12:05:33;3.97;;;3.60;;
6342;SDS011;3204;42.698;23.298;2023-07-31T12:07:58;3.83;;;3.63;;
6342;SDS011;3204;42.698;23.298;2023-07-31T12:10:25;3.65;;;3.40;;
6342;SDS011;3204;42.698;23.298;2023-07-31T12:13:10;4.53;;;4.32;;
6342;SDS011;3204;42.698;23.298;2023-07-31T12:15:41;4.60;;;4.20;;
6342;SDS011;3204;42.698;23.298;2023-07-31T12:18:11;4.40;;;4.20;;
6342;SDS011;3204;42.698;23.298;2023-07-31T12:23:12;5.20;;;4.90;;
6342;SDS011;3204;42.698;23.298;2023-07-31T12:25:40;5.03;;;4.72;;
6342;SDS011;3204;42.698;23.298;2023-07-31T12:28:06;4.78;;;4.57;;
6342;SDS011;3204;42.698;23.298;2023-07-31T12:30:36;4.47;;;4.25;;
6342;SDS011;3204;42.698;23.298;2023-07-31T12:33:03;4.43;;;4.20;;
6342;SDS011;3204;42.698;23.298;2023-07-31T12:35:37;4.15;;;3.95;;
6342;SDS011;3204;42.698;23.298;2023-07-31T12:38:05;4.22;;;3.92;;
6342;SDS011;3204;42.698;23.298;2023-07-31T12:40:31;5.00;;;4.70;;
6342;SDS011;3204;42.698;23.298;2023-07-31T12:42:56;4.13;;;3.92;;
6342;SDS011;3204;42.698;23.298;2023-07-31T12:45:22;5.35;;;4.97;;
6342;SDS011;3204;42.698;23.298;2023-07-31T12:47:48;5.60;;;5.32;;
6342;SDS011;3204;42.698;23.298;2023-07-31T12:50:13;5.63;;;5.32;;
6342;SDS011;3204;42.698;23.298;2023-07-31T12:52:39;6.18;;;5.45;;
6342;SDS011;3204;42.698;23.298;2023-07-31T12:55:04;7.13;;;5.43;;
6342;SDS011;3204;42.698;23.298;2023-07-31T12:57:30;5.35;;;4.97;;
6342;SDS011;3204;42.698;23.298;2023-07-31T12:59:56;6.10;;;5.70;;
6342;SDS011;3204;42.698;23.298;2023-07-31T13:02:21;5.82;;;5.45;;
6342;SDS011;3204;42.698;23.298;2023-07-31T13:04:47;6.00;;;5.70;;
6342;SDS011;3204;42.698;23.298;2023-07-31T13:07:15;7.10;;;5.03;;
6342;SDS011;3204;42.698;23.298;2023-07-31T13:09:41;5.78;;;5.38;;
6342;SDS011;3204;42.698;23.298;2023-07-31T13:12:06;6.07;;;5.60;;
6342;SDS011;3204;42.698;23.298;2023-07-31T13:14:32;5.07;;;4.88;;
6342;SDS011;3204;42.698;23.298;2023-07-31T13:16:57;5.85;;;5.47;;
6342;SDS011;3204;42.698;23.298;2023-07-31T13:19:23;5.30;;;5.00;;
6342;SDS011;3204;42.698;23.298;2023-07-31T13:21:48;5.20;;;4.93;;
6342;SDS011;3204;42.698;23.298;2023-07-31T13:24:14;5.03;;;4.70;;
6342;SDS011;3204;42.698;23.298;2023-07-31T13:26:39;4.68;;;4.38;;
6342;SDS011;3204;42.698;23.298;2023-07-31T13:29:05;6.55;;;4.70;;
6342;SDS011;3204;42.698;23.298;2023-07-31T13:31:30;4.55;;;4.25;;
6342;SDS011;3204;42.698;23.298;2023-07-31T13:33:56;4.63;;;4.43;;
6342;SDS011;3204;42.698;23.298;2023-07-31T13:36:21;8.80;;;4.30;;
6342;SDS011;3204;42.698;23.298;2023-07-31T13:38:47;4.60;;;4.20;;
6342;SDS011;3204;42.698;23.298;2023-07-31T13:41:12;4.30;;;4.10;;
6342;SDS011;3204;42.698;23.298;2023-07-31T13:43:37;5.72;;;4.35;;
6342;SDS011;3204;42.698;23.298;2023-07-31T13:46:03;4.68;;;4.47;;
6342;SDS011;3204;42.698;23.298;2023-07-31T13:48:33;4.10;;;3.80;;
6342;SDS011;3204;42.698;23.298;2023-07-31T13:50:59;4.50;;;4.30;;
6342;SDS011;3204;42.698;23.298;2023-07-31T13:53:25;4.15;;;3.95;;
6342;SDS011;3204;42.698;23.298;2023-07-31T13:55:50;4.30;;;3.90;;
6342;SDS011;3204;42.698;23.298;2023-07-31T13:58:17;5.07;;;4.13;;
6342;SDS011;3204;42.698;23.298;2023-07-31T14:00:42;4.13;;;3.92;;
6342;SDS011;3204;42.698;23.298;2023-07-31T14:03:08;3.80;;;3.50;;
6342;SDS011;3204;42.698;23.298;2023-07-31T14:05:33;3.90;;;3.80;;
6342;SDS011;3204;42.698;23.298;2023-07-31T14:07:59;4.22;;;4.03;;
6342;SDS011;3204;42.698;23.298;2023-07-31T14:10:25;4.32;;;4.03;;
6342;SDS011;3204;42.698;23.298;2023-07-31T14:12:50;4.40;;;4.20;;
6342;SDS011;3204;42.698;23.298;2023-07-31T14:15:16;4.72;;;4.43;;
6342;SDS011;3204;42.698;23.298;2023-07-31T14:17:41;4.78;;;4.47;;
6342;SDS011;3204;42.698;23.298;2023-07-31T14:20:07;5.40;;;4.15;;
6342;SDS011;3204;42.698;23.298;2023-07-31T14:22:33;4.93;;;4.63;;
6342;SDS011;3204;42.698;23.298;2023-07-31T14:24:59;4.05;;;3.85;;
6342;SDS011;3204;42.698;23.298;2023-07-31T14:27:25;3.63;;;3.53;;
6342;SDS011;3204;42.698;23.298;2023-07-31T14:29:50;4.53;;;4.22;;
6342;SDS011;3204;42.698;23.298;2023-07-31T14:32:16;4.45;;;4.15;;
6342;SDS011;3204;42.698;23.298;2023-07-31T14:34:41;4.05;;;3.85;;
6342;SDS011;3204;42.698;23.298;2023-07-31T14:37:07;4.78;;;4.28;;
6342;SDS011;3204;42.698;23.298;2023-07-31T14:39:32;4.25;;;3.92;;
6342;SDS011;3204;42.698;23.298;2023-07-31T14:41:58;4.13;;;3.83;;
6342;SDS011;3204;42.698;23.298;2023-07-31T14:44:23;4.55;;;4.15;;
6342;SDS011;3204;42.698;23.298;2023-07-31T14:46:49;4.35;;;4.07;;
6342;SDS011;3204;42.698;23.298;2023-07-31T14:49:14;4.10;;;3.92;;
6342;SDS011;3204;42.698;23.298;2023-07-31T14:51:40;4.25;;;4.05;;
6342;SDS011;3204;42.698;23.298;2023-07-31T14:54:05;4.20;;;4.00;;
6342;SDS011;3204;42.698;23.298;2023-07-31T14:56:31;3.65;;;3.50;;
6342;SDS011;3204;42.698;23.298;2023-07-31T14:58:57;3.83;;;3.60;;
6342;SDS011;3204;42.698;23.298;2023-07-31T15:01:23;3.75;;;3.42;;
6342;SDS011;3204;42.698;23.298;2023-07-31T15:03:48;4.10;;;3.80;;
6342;SDS011;3204;42.698;23.298;2023-07-31T15:06:14;3.75;;;3.55;;
6342;SDS011;3204;42.698;23.298;2023-07-31T15:08:39;3.80;;;3.50;;